Time;durP1;ratioP1;P1;durP2;ratioP2;P2;SDS_P1;SDS_P2;PMS_P1;PMS_P2;Temp;Humidity;BMP_temperature;BMP_pressure;BME280_temperature;BME280_humidity;BME280_pressure;Samples;Min_cycle;Max_cycle;Signal;HPM_P1;HPM_P2
2022/11/24 00:01:24;;;;;;;19.48;8.68;;;;;;;;;;5076468;28;20137;-92
2022/11/24 00:04:00;;;;;;;15.13;7.75;;;;;;;;;;5059523;28;20127;-93
2022/11/24 00:06:26;;;;;;;18.77;9.73;;;;;;;;;;5059940;28;20044;-92
2022/11/24 00:08:53;;;;;;;16.70;8.85;;;;;;;;;;5059415;28;20040;-92
2022/11/24 00:11:21;;;;;;;20.27;9.57;;;;;;;;;;5075823;28;20048;-92
2022/11/24 00:13:47;;;;;;;16.88;9.45;;;;;;;;;;5059452;28;20409;-92
2022/11/24 00:16:13;;;;;;;27.95;10.98;;;;;;;;;;5059964;28;20067;-93
2022/11/24 00:18:40;;;;;;;22.38;9.02;;;;;;;;;;5059014;28;20519;-92
2022/11/24 00:21:06;;;;;;;25.92;10.18;;;;;;;;;;5060253;28;20036;-92
2022/11/24 00:23:33;;;;;;;16.23;9.60;;;;;;;;;;5059418;28;20044;-92
2022/11/24 00:26:03;;;;;;;13.70;8.93;;;;;;;;;;5058996;28;20489;-93
2022/11/24 00:28:29;;;;;;;15.32;9.50;;;;;;;;;;5075114;28;20048;-89
2022/11/24 00:30:55;;;;;;;17.33;8.63;;;;;;;;;;5058393;28;20049;-90
2022/11/24 00:33:21;;;;;;;14.25;8.00;;;;;;;;;;5059052;28;20047;-88
2022/11/24 00:35:53;;;;;;;22.13;9.00;;;;;;;;;;5058780;28;20044;-88
2022/11/24 00:38:19;;;;;;;19.27;9.00;;;;;;;;;;5058982;28;20139;-94
2022/11/24 00:40:45;;;;;;;21.98;8.82;;;;;;;;;;5058906;28;20080;-93
2022/11/24 00:43:11;;;;;;;22.08;9.07;;;;;;;;;;5059669;28;20131;-93
2022/11/24 00:45:37;;;;;;;26.13;9.20;;;;;;;;;;5062104;28;20051;-93
2022/11/24 00:48:04;;;;;;;21.63;10.05;;;;;;;;;;5062298;28;20073;-95
2022/11/24 00:50:30;;;;;;;17.45;8.80;;;;;;;;;;5062118;28;20043;-93
2022/11/24 00:52:56;;;;;;;23.50;9.05;;;;;;;;;;5062189;28;20050;-95
2022/11/24 00:55:22;;;;;;;18.50;8.48;;;;;;;;;;5062622;28;20403;-96
2022/11/24 00:57:48;;;;;;;15.38;8.48;;;;;;;;;;5062068;28;20040;-94
2022/11/24 01:00:14;;;;;;;15.07;8.40;;;;;;;;;;5078612;28;20130;-93
2022/11/24 01:02:40;;;;;;;18.65;8.07;;;;;;;;;;5061703;28;20044;-92
2022/11/24 01:05:06;;;;;;;18.95;9.27;;;;;;;;;;5062694;28;20465;-93
2022/11/24 01:07:32;;;;;;;17.75;8.23;;;;;;;;;;5078056;28;20488;-93
2022/11/24 01:09:58;;;;;;;20.00;8.57;;;;;;;;;;5078896;28;20069;-93
2022/11/24 01:12:24;;;;;;;17.98;8.02;;;;;;;;;;5096372;28;20068;-93
2022/11/24 01:14:50;;;;;;;25.27;9.70;;;;;;;;;;5078200;28;20044;-94
2022/11/24 01:17:16;;;;;;;28.48;8.73;;;;;;;;;;5096072;28;20473;-93
2022/11/24 01:19:42;;;;;;;21.33;8.38;;;;;;;;;;5078366;28;20078;-91
2022/11/24 01:22:08;;;;;;;20.10;8.30;;;;;;;;;;5096369;28;20044;-92
2022/11/24 01:24:34;;;;;;;18.77;6.93;;;;;;;;;;5078029;28;20121;-93
2022/11/24 01:27:00;;;;;;;19.05;7.07;;;;;;;;;;5077990;28;20048;-93
2022/11/24 01:29:26;;;;;;;18.30;7.60;;;;;;;;;;5077866;28;20047;-94
2022/11/24 01:31:52;;;;;;;21.42;6.72;;;;;;;;;;5061225;28;20079;-93
2022/11/24 01:34:18;;;;;;;18.48;6.93;;;;;;;;;;5061131;28;20044;-94
2022/11/24 01:36:45;;;;;;;16.05;6.85;;;;;;;;;;5078105;28;20048;-93
2022/11/24 01:39:11;;;;;;;14.85;6.32;;;;;;;;;;5077863;28;20071;-93
2022/11/24 01:41:37;;;;;;;22.85;7.00;;;;;;;;;;5061003;28;20055;-94
2022/11/24 01:44:19;;;;;;;14.98;6.75;;;;;;;;;;5056917;28;20102;-94
2022/11/24 01:46:46;;;;;;;18.38;7.53;;;;;;;;;;5041734;28;20075;-92
2022/11/24 01:49:18;;;;;;;20.92;7.25;;;;;;;;;;5041264;28;20093;-93
2022/11/24 01:51:48;;;;;;;18.90;6.63;;;;;;;;;;5040831;28;20135;-93
2022/11/24 01:54:17;;;;;;;12.38;6.47;;;;;;;;;;5041797;28;20465;-93
2022/11/24 01:56:46;;;;;;;24.20;8.30;;;;;;;;;;5058018;28;20048;-95
2022/11/24 01:59:13;;;;;;;24.48;8.32;;;;;;;;;;5075232;28;20093;-92
2022/11/24 02:01:39;;;;;;;17.27;7.03;;;;;;;;;;5040506;28;20047;-94
2022/11/24 02:04:08;;;;;;;15.95;6.43;;;;;;;;;;5057423;28;20080;-93
2022/11/24 02:06:35;;;;;;;21.60;6.20;;;;;;;;;;5041063;28;20098;-92
2022/11/24 02:09:12;;;;;;;21.23;6.82;;;;;;;;;;5040443;28;20178;-90
2022/11/24 02:11:39;;;;;;;23.30;6.50;;;;;;;;;;5056554;28;20542;-90
2022/11/24 02:14:06;;;;;;;16.05;5.55;;;;;;;;;;5040167;28;20043;-93
2022/11/24 02:16:36;;;;;;;18.30;7.45;;;;;;;;;;5040132;28;20098;-91
2022/11/24 02:19:09;;;;;;;27.35;6.85;;;7.50;99.90;;;;;;5039848;28;20072;-91
2022/11/24 02:21:35;;;;;;;22.17;6.70;;;;;;;;;;5040253;28;20040;-89
2022/11/24 02:24:06;;;;;;;12.40;5.07;;;;;;;;;;5040162;28;20123;-91
2022/11/24 02:26:37;;;;;;;19.25;5.88;;;;;;;;;;5039832;28;20393;-91
2022/11/24 02:29:03;;;;;;;21.55;6.72;;;;;;;;;;5056379;28;20082;-90
2022/11/24 02:31:29;;;;;;;18.52;5.82;;;;;;;;;;5056349;28;20052;-90
2022/11/24 02:33:55;;;;;;;21.40;5.63;;;;;;;;;;5039923;28;20102;-90
2022/11/24 02:36:21;;;;;;;16.00;5.40;;;;;;;;;;5039846;28;20048;-88
2022/11/24 02:38:47;;;;;;;20.13;5.80;;;;;;;;;;5040011;28;20136;-88
2022/11/24 02:41:15;;;;;;;15.82;5.25;;;;;;;;;;5040406;28;20474;-89
2022/11/24 02:43:42;;;;;;;15.13;5.35;;;;;;;;;;5057467;28;20490;-91
2022/11/24 02:46:09;;;;;;;27.52;6.30;;;;;;;;;;5060595;28;20400;-89
2022/11/24 02:48:36;;;;;;;19.80;5.22;;;;;;;;;;5060072;28;20048;-87
2022/11/24 02:51:02;;;;;;;16.02;5.78;;;;;;;;;;5075717;28;20408;-87
2022/11/24 02:53:28;;;;;;;24.55;6.95;;;;;;;;;;5059432;28;20047;-87
2022/11/24 02:55:54;;;;;;;15.55;5.20;;;;;;;;;;5058921;28;20040;-87
2022/11/24 02:58:20;;;;;;;25.85;5.97;;;;;;;;;;5067020;28;20080;-93
2022/11/24 03:00:47;;;;;;;19.52;6.85;;;;;;;;;;5070492;28;20042;-94
2022/11/24 03:03:13;;;;;;;15.90;5.15;;;;;;;;;;5087193;28;20048;-92
2022/11/24 03:05:39;;;;;;;23.20;6.57;;;;;;;;;;5087246;28;20044;-92
2022/11/24 03:08:06;;;;;;;16.30;5.05;;;;;;;;;;5066784;28;20040;-93
2022/11/24 03:10:32;;;;;;;14.63;5.55;;;;;;;;;;5079151;28;20131;-93
2022/11/24 03:12:58;;;;;;;17.20;5.43;;;;;;;;;;5060483;28;20093;-94
2022/11/24 03:15:24;;;;;;;18.65;5.00;;;;;;;;;;5059911;28;20492;-94
2022/11/24 03:17:50;;;;;;;17.27;4.65;;;;;;;;;;5060138;28;20040;-93
2022/11/24 03:20:16;;;;;;;16.85;6.38;;;;;;;;;;5076953;28;20126;-92
2022/11/24 03:22:42;;;;;;;18.13;5.80;;;;;;;;;;5076872;28;20040;-94
2022/11/24 03:25:08;;;;;;;16.38;4.65;;;;;;;;;;5059955;28;20447;-94
2022/11/24 03:27:34;;;;;;;12.05;4.82;;;;;;;;;;5076319;28;20036;-94
2022/11/24 03:30:00;;;;;;;18.35;5.20;;;;;;;;;;5059754;28;20067;-95
2022/11/24 03:32:26;;;;;;;18.25;5.15;;;;;;;;;;5076252;28;20400;-94
2022/11/24 03:34:52;;;;;;;18.02;5.38;;;;;;;;;;5059576;28;20044;-94
2022/11/24 03:37:18;;;;;;;16.55;5.65;;;;;;;;;;5076123;28;20044;-93
2022/11/24 03:39:44;;;;;;;18.30;5.80;;;;;;;;;;5075908;28;20041;-94
2022/11/24 03:42:10;;;;;;;21.88;5.75;;;;;;;;;;5059273;28;20054;-94
2022/11/24 03:44:36;;;;;;;23.10;5.85;;;;;;;;;;5075949;28;20460;-94
2022/11/24 03:47:02;;;;;;;19.73;4.82;;;;;;;;;;5059394;28;20036;-94
2022/11/24 03:49:28;;;;;;;15.70;4.53;;;;;;;;;;5075902;28;20127;-94
2022/11/24 03:51:54;;;;;;;15.30;5.18;;;;;;;;;;5094153;28;20105;-95
2022/11/24 03:54:20;;;;;;;27.65;5.57;;;;;;;;;;5060049;28;20036;-93
2022/11/24 03:56:46;;;;;;;11.93;4.68;;;;;;;;;;5094079;28;20052;-90
2022/11/24 03:59:12;;;;;;;17.90;4.07;;;;;;;;;;5076166;28;20040;-90
2022/11/24 04:01:38;;;;;;;23.55;4.82;;;;;;;;;;5075937;28;20044;-88
2022/11/24 04:04:05;;;;;;;9.95;3.75;;;;;;;;;;5077898;28;20135;-96
2022/11/24 04:06:31;;;;;;;22.92;4.22;;;;;;;;;;5063486;28;20047;-95
2022/11/24 04:08:57;;;;;;;27.10;5.35;;;;;;;;;;5062748;28;20044;-95
2022/11/24 04:14:07;;;;;;;24.55;4.85;;;;;;;;;;5079308;28;20052;-95
2022/11/24 04:16:33;;;;;;;15.68;4.65;;;;;;;;;;5062903;28;20052;-96
2022/11/24 04:18:59;;;;;;;15.18;4.80;;;;;;;;;;5063088;28;20044;-95
2022/11/24 04:21:25;;;;;;;19.52;5.18;;;;;;;;;;5079502;28;20054;-94
2022/11/24 04:23:51;;;;;;;23.63;5.20;;;;;;;;;;5079740;28;20117;-92
2022/11/24 04:26:17;;;;;;;6.65;3.75;;;;;;;;;;5062880;28;20438;-93
2022/11/24 04:28:46;;;;;;;15.07;4.15;;;;;;;;;;5063819;28;20044;-90
2022/11/24 04:31:12;;;;;;;26.95;5.30;;;;;;;;;;5078884;28;20044;-93
2022/11/24 04:33:38;;;;;;;17.80;5.18;;;;;;;;;;5062363;28;20047;-89
2022/11/24 04:36:04;;;;;;;14.48;3.65;;;;;;;;;;5062271;28;20188;-90
2022/11/24 04:38:30;;;;;;;16.88;4.32;;;;;;;;;;5079201;28;20051;-90
2022/11/24 04:41:01;;;;;;;12.98;4.47;;;;;;;;;;5078964;28;20055;-88
2022/11/24 04:43:27;;;;;;;20.13;4.95;;;;;;;;;;5062221;28;20044;-90
2022/11/24 04:45:54;;;;;;;18.85;4.07;;;;;;;;;;5078597;28;20058;-95
2022/11/24 04:48:20;;;;;;;17.35;4.22;;;;;;;;;;5078929;28;20052;-93
2022/11/24 04:50:46;;;;;;;11.43;4.45;;;;;;;;;;5078504;28;20048;-94
2022/11/24 04:53:12;;;;;;;16.92;4.30;;;;;;;;;;5078756;28;20131;-96
2022/11/24 04:55:39;;;;;;;16.38;4.25;;;;;;;;;;5061936;28;20043;-93
2022/11/24 04:58:09;;;;;;;14.30;4.90;;;;;;;;;;5078671;28;20079;-95
2022/11/24 05:00:36;;;;;;;21.42;4.95;;;;;;;;;;5078752;28;20070;-94
2022/11/24 05:03:02;;;;;;;18.38;5.38;;;;;;;;;;5061868;28;20070;-94
2022/11/24 05:05:28;;;;;;;11.50;3.65;;;;;;;;;;5079686;28;20048;-94
2022/11/24 05:07:54;;;;;;;18.63;5.20;;;;;;;;;;5078426;28;20044;-95
2022/11/24 05:10:35;;;;;;;14.30;5.80;;;;;;;;;;5078418;28;20169;-92
2022/11/24 05:13:02;;;;;;;20.02;4.75;;;;;;;;;;5096412;28;20040;-91
2022/11/24 05:15:28;;;;;;;11.75;4.68;;;;;;;;;;5078488;28;20040;-91
2022/11/24 05:17:54;;;;;;;17.75;4.30;;;;;;;;;;5061472;28;20047;-95
2022/11/24 05:20:20;;;;;;;14.80;3.80;;;;;;;;;;5078303;28;20116;-94
2022/11/24 05:22:46;;;;;;;12.60;4.30;;;;;;;;;;5061887;28;20036;-94
2022/11/24 05:25:13;;;;;;;24.25;4.30;;;;;;;;;;5062637;28;20040;-94
2022/11/24 05:27:39;;;;;;;14.70;3.75;;;;;;;;;;5061210;28;20040;-94
2022/11/24 05:30:06;;;;;;;25.27;5.68;;;;;;;;;;5061553;28;20149;-92
2022/11/24 05:32:32;;;;;;;22.00;4.55;;;;;;;;;;5061853;28;20370;-94
2022/11/24 05:34:59;;;;;;;20.23;5.43;;;;;;;;;;5061950;28;20040;-94
2022/11/24 05:37:27;;;;;;;10.35;4.38;;;;;;;;;;5077855;28;20036;-92
2022/11/24 05:39:53;;;;;;;13.05;3.55;;;;;;;;;;5061065;28;20048;-91
2022/11/24 05:45:05;;;;;;;12.68;4.75;;;;;;;;;;5077145;28;20056;-92
2022/11/24 05:47:31;;;;;;;11.85;3.67;;;;;;;;;;5060902;28;20146;-92
2022/11/24 05:49:57;;;;;;;11.27;3.50;;;;;;;;;;5062519;28;20040;-91
2022/11/24 05:52:23;;;;;;;15.27;4.05;;;;;;;;;;5077775;28;20044;-95
2022/11/24 05:54:52;;;;;;;14.43;4.40;;;;;;;;;;5061352;28;20079;-94
2022/11/24 05:57:18;;;;;;;15.68;4.28;;;;;;;;;;5063283;28;20036;-95
2022/11/24 05:59:44;;;;;;;11.57;3.75;;;;;;;;;;5064076;28;20080;-95
2022/11/24 06:02:11;;;;;;;12.80;3.75;;;;;;;;;;5079565;28;20048;-93
2022/11/24 06:04:37;;;;;;;23.65;5.30;;;;;;;;;;5079426;28;20047;-93
2022/11/24 06:07:07;;;;;;;16.27;5.75;;;;;;;;;;5079700;28;20048;-93
2022/11/24 06:09:35;;;;;;;25.38;4.82;;;;;;;;;;5063428;28;20040;-93
2022/11/24 06:12:24;;;;;;;16.42;4.32;;;;;;;;;;5062956;28;20090;-92
2022/11/24 06:14:50;;;;;;;14.68;3.85;;;;;;;;;;5062681;28;20044;-92
2022/11/24 06:17:16;;;;;;;13.05;4.00;;;;;;;;;;5062899;28;20044;-93
2022/11/24 06:19:58;;;;;;;;;;;;;;;;;;;;;
2022/11/24 06:25:18;;;;;;;19.83;4.53;;;;;;;;;;5347361;22;20560;-94
2022/11/24 06:27:44;;;;;;;10.70;4.22;;;;;;;;;;5066989;22;20052;-93
2022/11/24 06:30:12;;;;;;;17.38;3.58;;;;;;;;;;5042885;28;20066;-93
2022/11/24 06:32:38;;;;;;;20.75;6.03;;;;;;;;;;5042805;28;20131;-93
2022/11/24 06:35:25;;;;;;;13.85;4.50;;;;;;;;;;5045582;28;20101;-89
2022/11/24 06:37:51;;;;;;;15.35;4.45;;;;;;;;;;5060456;28;20059;-91
2022/11/24 06:40:17;;;;;;;17.80;3.95;;;;;;;;;;5060572;28;20134;-94
2022/11/24 06:42:49;;;;;;;16.38;5.53;;;;;;;;;;5060574;28;20396;-89
2022/11/24 06:45:15;;;;;;;14.70;4.35;;;;;;;;;;5094153;28;20136;-94
2022/11/24 06:47:41;;;;;;;11.52;4.57;;;;;;;;;;5059885;28;20083;-90
2022/11/24 06:50:08;;;;;;;15.50;3.90;;;;;;;;;;5060624;28;20048;-89
2022/11/24 06:52:34;;;;;;;10.90;3.45;;;;;;;;;;5077089;28;20105;-94
2022/11/24 06:55:00;;;;;;;17.63;4.28;;;;;;;;;;5094464;28;20048;-92
2022/11/24 06:57:29;;;;;;;13.00;4.00;;;;;;;;;;5092931;28;20105;-94
2022/11/24 06:59:57;;;;;;;17.38;3.78;;;;;;;;;;5076497;28;20131;-91
2022/11/24 07:02:23;;;;;;;10.57;3.40;;;;;;;;;;5059883;28;20044;-92
2022/11/24 07:04:49;;;;;;;13.70;3.78;;;;;;;;;;5059322;28;20042;-88
2022/11/24 07:07:15;;;;;;;16.23;4.00;;;;;;;;;;5058936;28;20126;-89
2022/11/24 07:09:41;;;;;;;11.95;3.47;;;;;;;;;;5058934;28;20094;-90
2022/11/24 07:12:07;;;;;;;9.32;3.78;;;;;;;;;;5058915;28;20468;-89
2022/11/24 07:14:33;;;;;;;8.65;3.33;;;;;;;;;;5059024;28;20519;-90
2022/11/24 07:17:01;;;;;;;13.38;3.80;;;;;;;;;;5059111;28;20519;-89
2022/11/24 07:19:27;;;;;;;11.57;3.83;;;;;;;;;;5059138;28;20051;-90
2022/11/24 07:21:53;;;;;;;15.82;4.45;;;;;;;;;;5059095;28;20069;-89
2022/11/24 07:24:19;;;;;;;13.18;3.58;;;;;;;;;;5058714;28;20506;-90
2022/11/24 07:26:45;;;;;;;12.98;3.65;;;;;;;;;;5075231;28;20051;-88
2022/11/24 07:29:11;;;;;;;10.70;3.00;;;;;;;;;;5059728;28;20051;-91
2022/11/24 07:31:37;;;;;;;14.15;3.40;;;;;;;;;;5058716;28;20126;-89
2022/11/24 07:34:03;;;;;;;15.90;4.95;;;;;;;;;;5075311;28;20136;-89
2022/11/24 07:36:29;;;;;;;8.75;3.85;;;;;;;;;;5058399;28;20109;-89
2022/11/24 07:38:55;;;;;;;7.80;3.40;;;;;;;;;;5060653;28;20040;-90
2022/11/24 07:41:21;;;;;;;9.57;3.95;;;;;;;;;;5079729;28;20040;-89
2022/11/24 07:43:48;;;;;;;11.57;4.38;;;;;;;;;;5063205;28;20052;-90
2022/11/24 07:46:14;;;;;;;13.63;3.95;;;;;;;;;;5081536;28;20040;-90
2022/11/24 07:48:40;;;;;;;10.23;3.67;;;;;;;;;;5066676;28;20458;-91
2022/11/24 07:51:07;;;;;;;12.20;4.55;;;;;;;;;;5063774;28;20040;-90
2022/11/24 07:53:34;;;;;;;13.18;4.93;;;;;;;;;;5062652;28;20115;-89
2022/11/24 07:56:01;;;;;;;9.40;3.72;;;;;;;;;;5062213;28;20040;-89
2022/11/24 07:58:31;;;;;;;8.65;4.72;;;;;;;;;;5062017;28;20040;-89
2022/11/24 08:00:57;;;;;;;15.85;4.50;;;;;;;;;;5062001;28;20048;-89
2022/11/24 08:03:24;;;;;;;13.27;4.72;;;;;;;;;;5062077;28;20488;-89
2022/11/24 08:05:54;;;;;;;18.10;4.30;;;;;;;;;;5062471;28;20079;-90
2022/11/24 08:08:20;;;;;;;15.75;5.47;;;;;;;;;;5061948;28;20055;-88
2022/11/24 08:10:46;;;;;;;15.20;4.43;;;;;;;;;;5062227;28;20449;-88
2022/11/24 08:13:12;;;;;;;18.25;4.30;;;;;;;;;;5062049;28;20040;-88
2022/11/24 08:15:38;;;;;;;16.60;4.10;;;;;;;;;;5078388;28;20048;-88
2022/11/24 08:18:05;;;;;;;12.52;4.97;;;;;;;;;;5062295;28;20047;-88
2022/11/24 08:20:31;;;;;;;9.57;4.50;;;;;;;;;;5061644;28;20131;-89
2022/11/24 08:23:00;;;;;;;32.95;7.15;;;;;;;;;;5061990;28;20036;-90
2022/11/24 08:25:31;;;;;;;16.83;5.25;;;;;;;;;;5061468;28;20089;-89
2022/11/24 08:28:02;;;;;;;15.02;5.30;;;7.00;99.90;;;;;;5078219;28;20109;-88
2022/11/24 08:30:28;;;;;;;12.70;5.18;;;;;;;;;;5061608;28;20495;-88
2022/11/24 08:32:54;;;;;;;13.27;5.03;;;;;;;;;;5078157;28;20044;-88
2022/11/24 08:35:21;;;;;;;25.30;5.35;;;;;;;;;;5061446;28;20085;-89
2022/11/24 08:37:47;;;;;;;18.27;5.43;;;;;;;;;;5061230;28;20036;-88
2022/11/24 08:40:13;;;;;;;15.13;5.13;;;;;;;;;;5077950;28;20047;-88
2022/11/24 08:42:39;;;;;;;12.80;5.30;;;;;;;;;;5062592;28;20040;-88
2022/11/24 08:45:05;;;;;;;13.00;4.53;;;;;;;;;;5061291;28;20428;-88
2022/11/24 08:47:31;;;;;;;14.15;5.25;;;;;;;;;;5077848;28;20039;-90
2022/11/24 08:49:57;;;;;;;15.40;4.97;;;;;;;;;;5060241;28;20055;-90
2022/11/24 08:52:23;;;;;;;11.77;5.38;;;;;;;;;;5086291;28;20044;-89
2022/11/24 08:54:49;;;;;;;9.35;5.13;;;;;;;;;;5066967;28;20040;-90
2022/11/24 08:57:15;;;;;;;11.60;4.07;;;;;;;;;;5066750;28;20098;-90
2022/11/24 08:59:41;;;;;;;14.95;5.72;;;;;;;;;;5084618;28;20474;-89
2022/11/24 09:02:11;;;;;;;15.80;5.47;;;;;;;;;;5062967;28;20073;-89
2022/11/24 09:04:37;;;;;;;11.07;5.38;;;;;;;;;;5061834;28;20051;-89
2022/11/24 09:07:03;;;;;;;10.30;4.93;;;;;;;;;;5061335;28;20135;-88
2022/11/24 09:09:29;;;;;;;10.15;4.90;;;;;;;;;;5061361;28;20047;-89
2022/11/24 09:11:55;;;;;;;14.98;4.47;;;;;;;;;;5060834;28;20048;-88
2022/11/24 09:14:21;;;;;;;11.75;4.00;;;;;;;;;;5061462;28;20044;-88
2022/11/24 09:16:47;;;;;;;15.70;4.70;;;;;;;;;;5060896;28;20052;-88
2022/11/24 09:19:13;;;;;;;12.65;4.40;;;;;;;;;;5078601;28;20078;-88
2022/11/24 09:21:39;;;;;;;10.27;3.97;;;;;;;;;;5060580;28;20080;-88
2022/11/24 09:24:06;;;;;;;9.13;4.22;;;;;;;;;;5077338;28;20043;-89
2022/11/24 09:26:33;;;;;;;6.85;4.22;;;;;;;;;;5077443;28;20583;-88
2022/11/24 09:29:00;;;;;;;6.65;3.60;;;;;;;;;;5076925;28;20500;-88
2022/11/24 09:31:33;;;;;;;8.95;4.22;;;;;;;;;;5060225;28;20102;-88
2022/11/24 09:33:59;;;;;;;9.95;3.17;;;;;;;;;;5076855;28;20055;-89
2022/11/24 09:36:25;;;;;;;6.68;3.80;;;;;;;;;;5061385;28;20044;-88
2022/11/24 09:38:51;;;;;;;12.45;4.05;;;;;;;;;;5060162;28;20093;-88
2022/11/24 09:41:17;;;;;;;9.68;3.75;;;;;;;;;;5060109;28;20044;-88
2022/11/24 09:43:56;;;;;;;13.88;4.85;;;;;;;;;;5076770;28;20036;-88
2022/11/24 09:46:46;;;;;;;7.13;3.28;;;7.70;99.90;;;;;;5060316;28;20484;-87
2022/11/24 09:49:26;;;;;;;7.10;3.30;;;7.60;99.90;;;;;;5060373;28;20044;-88
2022/11/24 09:51:53;;;;;;;8.13;3.45;;;;;;;;;;5076564;28;20083;-89
2022/11/24 09:54:22;;;;;;;6.65;3.03;;;;;;;;;;5061063;28;20051;-89
2022/11/24 09:56:50;;;;;;;6.63;3.08;;;;;;;;;;5076764;28;20048;-89
2022/11/24 09:59:23;;;;;;;6.90;3.17;;;;;;;;;;5060513;28;20048;-89
2022/11/24 10:01:50;;;;;;;4.93;2.83;;;;;;;;;;5076604;28;20048;-89
2022/11/24 10:04:21;;;;;;;11.20;2.65;;;;;;;;;;5059677;28;20790;-89
2022/11/24 10:06:56;;;;;;;6.38;2.97;;;;;;;;;;5059651;28;20048;-89
2022/11/24 10:09:47;;;;;;;2.97;2.08;;;8.10;99.90;;;;;;5076261;28;20050;-89
2022/11/24 10:12:37;;;;;;;4.45;2.60;;;8.40;99.90;;;;;;5059397;28;20545;-89
2022/11/24 10:15:07;;;;;;;7.63;2.38;;;;;;;;;;5059810;28;20126;-89
2022/11/24 10:17:45;;;;;;;7.28;2.60;;;8.20;99.90;;;;;;5059661;28;20472;-88
2022/11/24 10:20:22;;;;;;;7.38;2.55;;;;;;;;;;5076221;28;20079;-89
2022/11/24 10:23:15;;;;;;;11.05;2.92;;;8.30;99.90;;;;;;5059795;28;20054;-88
2022/11/24 10:25:48;;;;;;;6.68;3.15;;;;;;;;;;5059253;28;20126;-89
2022/11/24 10:28:14;;;;;;;8.52;3.92;;;;;;;;;;5075935;28;20062;-89
2022/11/24 10:30:41;;;;;;;8.48;3.38;;;;;;;;;;5059048;28;20135;-89
2022/11/24 10:33:12;;;;;;;6.18;2.63;;;;;;;;;;5075771;28;20040;-89
2022/11/24 10:36:01;;;;;;;6.15;2.53;;;;;;;;;;5059174;28;20499;-89
2022/11/24 10:38:46;;;;;;;7.07;2.55;;;;;;;;;;5059370;28;20044;-88
2022/11/24 10:41:14;;;;;;;8.25;2.60;;;;;;;;;;5076781;28;20384;-88
2022/11/24 10:43:41;;;;;;;6.97;3.03;;;;;;;;;;5058956;28;20040;-88
2022/11/24 10:46:13;;;;;;;10.95;3.13;;;;;;;;;;5058805;28;20044;-88
2022/11/24 10:48:42;;;;;;;6.65;2.55;;;;;;;;;;5075609;28;20096;-87
2022/11/24 10:51:51;;;;;;;6.65;2.40;;;8.90;99.90;;;;;;5059978;28;20469;-88
2022/11/24 10:54:19;;;;;;;8.48;2.65;;;;;;;;;;4995431;28;20534;-87
2022/11/24 10:56:46;;;;;;;6.63;2.67;;;;;;;;;;4978803;28;20061;-88
2022/11/24 10:59:23;;;;;;;10.63;2.85;;;;;;;;;;4979854;28;20083;-88
2022/11/24 11:01:50;;;;;;;7.30;2.92;;;;;;;;;;4995488;28;20052;-88
2022/11/24 11:04:20;;;;;;;8.90;2.85;;;;;;;;;;4995356;28;20050;-88
2022/11/24 11:06:46;;;;;;;12.65;2.95;;;;;;;;;;4995504;28;20160;-88
2022/11/24 11:09:18;;;;;;;8.23;3.13;;;;;;;;;;4979114;28;20045;-88
2022/11/24 11:11:47;;;;;;;5.45;2.90;;;;;;;;;;4994930;28;20209;-87
2022/11/24 11:14:27;;;;;;;7.05;3.05;;;;;;;;;;4994512;28;20085;-88
2022/11/24 11:16:53;;;;;;;3.97;3.22;;;;;;;;;;4979122;28;20184;-88
2022/11/24 11:19:28;;;;;;;6.22;3.10;;;;;;;;;;4994978;28;20085;-88
2022/11/24 11:22:14;;;;;;;8.10;3.05;;;;;;;;;;4994861;28;20132;-88
2022/11/24 11:24:42;;;;;;;7.82;3.53;;;;;;;;;;4991638;28;20504;-88
2022/11/24 11:27:22;;;;;;;13.27;3.35;;;9.30;99.90;;;;;;4995018;28;20101;-88
2022/11/24 11:29:48;;;;;;;11.27;3.28;;;;;;;;;;5022935;28;20055;-88
2022/11/24 11:32:23;;;;;;;10.02;3.72;;;9.60;99.90;;;;;;5075445;28;20090;-88
2022/11/24 11:34:51;;;;;;;8.45;3.30;;;9.60;99.90;;;;;;5058426;28;20381;-89
2022/11/24 11:37:17;;;;;;;13.73;4.53;;;;;;;;;;5058661;28;20040;-89
2022/11/24 11:39:45;;;;;;;11.52;3.00;;;;;;;;;;5059583;28;20039;-88
2022/11/24 11:42:18;;;;;;;7.50;3.38;;;;;;;;;;5076221;28;20126;-88
2022/11/24 11:44:48;;;;;;;19.27;3.80;;;;;;;;;;5059253;28;20373;-88
2022/11/24 11:47:32;;;;;;;12.73;3.33;;;10.00;99.90;;;;;;5074956;28;20036;-89
2022/11/24 11:49:58;;;;;;;9.35;2.83;;;;;;;;;;5075145;28;20036;-89
2022/11/24 11:52:30;;;;;;;7.93;3.13;;;;;;;;;;5058559;28;20158;-88
2022/11/24 11:55:20;;;;;;;6.65;2.83;;;9.70;99.90;;;;;;5074993;28;20082;-88
2022/11/24 11:58:20;;;;;;;7.50;3.10;;;10.00;99.90;;;;;;5058231;28;20052;-89
2022/11/24 12:00:58;;;;;;;11.23;3.38;;;10.00;99.90;;;;;;5058159;28;20036;-89
2022/11/24 12:04:02;;;;;;;7.60;3.13;;;10.00;99.90;;;;;;5058509;28;20091;-89
2022/11/24 12:06:46;;;;;;;9.82;2.72;;;10.10;99.90;;;;;;4994465;28;20058;-89
2022/11/24 12:09:26;;;;;;;;;;;10.20;99.90;;;;;;4995400;28;20057;-89
2022/11/24 12:11:52;;;;;;;10.27;2.97;;;;;;;;;;4994501;28;19968;-89
2022/11/24 12:14:32;;;;;;;6.85;3.08;;;10.10;99.90;;;;;;4978242;28;20133;-90
2022/11/24 12:17:16;;;;;;;10.35;2.80;;;10.20;99.90;;;;;;4978574;28;20441;-89
2022/11/24 12:20:07;;;;;;;9.55;3.22;;;10.20;99.90;;;;;;4979741;28;20046;-89
2022/11/24 12:22:46;;;;;;;6.72;2.78;;;;;;;;;;4979155;28;20042;-89
2022/11/24 12:25:12;;;;;;;12.00;3.13;;;;;;;;;;4995108;28;20137;-89
2022/11/24 12:28:24;;;;;;;10.73;3.35;;;10.30;99.90;;;;;;4981687;28;20092;-89
2022/11/24 12:31:06;;;;;;;14.95;3.25;;;;;;;;;;4975105;28;20090;-90
2022/11/24 12:33:38;;;;;;;11.63;2.90;;;;;;;;;;4975385;28;20660;-89
2022/11/24 12:36:15;;;;;;;10.75;3.17;;;;;;;;;;4974982;28;20091;-89
2022/11/24 12:39:04;;;;;;;15.25;3.83;;;10.30;99.90;;;;;;4958916;28;20047;-88
2022/11/24 12:41:30;;;;;;;7.40;3.03;;;;;;;;;;4958728;28;20066;-89
2022/11/24 12:43:57;;;;;;;3.95;2.42;;;;;;;;;;4997199;28;20099;-90
2022/11/24 12:46:52;;;;;;;9.45;2.95;;;10.40;99.90;;;;;;5001687;28;20042;-89
2022/11/24 12:49:51;;;;;;;10.98;3.25;;;10.50;99.90;;;;;;5034189;28;20064;-87
2022/11/24 12:52:24;;;;;;;10.68;3.00;;;;;;;;;;5002509;28;20041;-87
2022/11/24 12:54:50;;;;;;;11.02;3.10;;;;;;;;;;5004643;28;20470;-87
2022/11/24 12:57:35;;;;;;;9.68;3.10;;;10.60;99.90;;;;;;5001299;28;20533;-87
2022/11/24 13:00:05;;;;;;;9.57;3.15;;;;;;;;;;5003040;28;20092;-87
2022/11/24 13:02:42;;;;;;;6.07;2.55;;;;;;;;;;5035021;28;20568;-87
2022/11/24 13:05:31;;;;;;;15.32;3.00;;;10.70;99.90;;;;;;5000403;28;20498;-87
2022/11/24 13:08:00;;;;;;;10.65;2.90;;;10.70;99.90;;;;;;5050802;28;20087;-87
2022/11/24 13:10:29;;;;;;;11.70;3.65;;;10.30;99.90;;;;;;5077173;28;20044;-87
2022/11/24 13:13:17;;;;;;;11.63;3.00;;;10.60;99.90;;;;;;5077675;28;20378;-87
2022/11/24 13:15:52;;;;;;;9.38;2.70;;;;;;;;;;5060895;28;20036;-88
2022/11/24 13:18:52;;;;;;;11.25;4.68;;;10.80;99.90;;;;;;5060891;28;20110;-87
2022/11/24 13:21:28;;;;;;;11.07;2.95;;;;;;;;;;5060571;28;20044;-87
2022/11/24 13:24:03;;;;;;;8.98;2.80;;;10.60;99.90;;;;;;5060360;28;20040;-87
2022/11/24 13:26:38;;;;;;;14.27;3.05;;;;;;;;;;5060193;28;20036;-87
2022/11/24 13:29:05;;;;;;;10.23;3.45;;;;;;;;;;5060299;28;20504;-87
2022/11/24 13:31:31;;;;;;;7.07;2.33;;;;;;;;;;5060123;28;20044;-87
2022/11/24 13:33:57;;;;;;;11.77;2.97;;;;;;;;;;5060176;28;20514;-88
2022/11/24 13:36:23;;;;;;;13.40;3.22;;;;;;;;;;5060024;28;20098;-88
2022/11/24 13:38:49;;;;;;;6.93;2.80;;;;;;;;;;5060396;28;20044;-86
2022/11/24 13:41:30;;;;;;;11.38;3.00;;;10.60;99.90;;;;;;5060271;28;20131;-87
2022/11/24 13:44:25;;;;;;;13.40;4.10;;;10.80;99.90;;;;;;5076685;28;20047;-87
2022/11/24 13:46:55;;;;;;;10.65;2.78;;;;;;;;;;4980752;28;20065;-87
2022/11/24 13:49:21;;;;;;;15.88;3.50;;;;;;;;;;4996582;28;20061;-88
2022/11/24 13:51:47;;;;;;;10.07;2.83;;;;;;;;;;4980206;28;20095;-87
2022/11/24 13:54:14;;;;;;;6.80;2.47;;;;;;;;;;4980020;28;20134;-88
2022/11/24 13:56:40;;;;;;;9.65;2.92;;;;;;;;;;4996355;28;20119;-88
2022/11/24 13:59:17;;;;;;;15.02;3.20;;;;;;;;;;4979953;28;20101;-88
2022/11/24 14:01:45;;;;;;;9.95;2.75;;;10.70;99.90;;;;;;4980346;28;20129;-88
2022/11/24 14:04:18;;;;;;;15.65;2.92;;;;;;;;;;4979973;28;20116;-90
2022/11/24 14:06:46;;;;;;;17.67;2.97;;;;;;;;;;4979789;28;20053;-88
2022/11/24 14:09:18;;;;;;;14.70;3.30;;;;;;;;;;4979958;28;20292;-89
2022/11/24 14:11:53;;;;;;;11.73;3.28;;;;;;;;;;4995986;28;20042;-89
2022/11/24 14:14:19;;;;;;;13.13;3.15;;;10.50;99.90;;;;;;4996111;28;20046;-89
2022/11/24 14:16:45;;;;;;;8.38;3.28;;;;;;;;;;4979751;28;20092;-88
2022/11/24 14:19:11;;;;;;;10.75;3.20;;;;;;;;;;4979702;28;20141;-88
2022/11/24 14:21:41;;;;;;;12.38;2.60;;;10.50;99.90;;;;;;4979741;28;20046;-88
2022/11/24 14:24:25;;;;;;;11.98;3.00;;;10.40;99.90;;;;;;5049611;28;20051;-88
2022/11/24 14:26:51;;;;;;;7.80;2.85;;;;;;;;;;5059142;28;20051;-88
2022/11/24 14:29:21;;;;;;;11.85;3.67;;;10.20;99.90;;;;;;5059598;28;20079;-89
2022/11/24 14:31:55;;;;;;;10.20;3.38;;;10.10;99.90;;;;;;5075791;28;20044;-87
2022/11/24 14:34:22;;;;;;;;;;;10.20;99.90;;;;;;5059706;28;20145;-87
2022/11/24 14:36:48;;;;;;;21.05;4.18;;;;;;;;;;5059135;28;19970;-87
2022/11/24 14:39:18;;;;;;;15.75;3.55;;;;;;;;;;5059068;28;20036;-87
2022/11/24 14:41:54;;;;;;;13.15;3.72;;;;;;;;;;5059737;28;20036;-87